createdAt,value
2023-03-08T00:00:47.324Z,99.90
2023-03-08T00:03:15.353Z,99.90
2023-03-08T00:05:43.015Z,99.90
2023-03-08T00:08:09.763Z,99.90
2023-03-08T00:10:37.088Z,99.90
2023-03-08T00:13:03.820Z,99.90
2023-03-08T00:15:32.484Z,99.90
2023-03-08T00:17:59.184Z,99.90
2023-03-08T00:20:25.846Z,99.90
2023-03-08T00:22:52.517Z,99.90
2023-03-08T00:25:19.295Z,99.90
2023-03-08T00:27:46.017Z,99.90
2023-03-08T00:30:13.863Z,99.90
2023-03-08T00:32:40.902Z,99.90
2023-03-08T00:35:08.393Z,99.90
2023-03-08T00:37:35.158Z,99.90
2023-03-08T00:40:01.804Z,99.90
2023-03-08T00:42:28.409Z,99.90
2023-03-08T00:44:55.033Z,99.90
2023-03-08T00:47:21.616Z,99.90
2023-03-08T00:49:48.250Z,99.90
2023-03-08T00:52:14.853Z,99.90
2023-03-08T00:54:41.549Z,99.90
2023-03-08T00:57:08.161Z,99.90
2023-03-08T00:59:34.771Z,99.90
2023-03-08T01:02:01.697Z,99.90
2023-03-08T01:04:28.504Z,99.90
2023-03-08T01:06:55.114Z,99.90
2023-03-08T01:09:21.693Z,99.90
2023-03-08T01:11:48.344Z,99.90
2023-03-08T01:14:14.992Z,99.90
2023-03-08T01:16:42.173Z,99.90
2023-03-08T01:19:10.449Z,99.90
2023-03-08T01:21:37.247Z,99.90
2023-03-08T01:24:04.265Z,99.90
2023-03-08T01:26:30.891Z,99.90
2023-03-08T01:28:57.771Z,99.90
2023-03-08T01:31:27.621Z,99.90
2023-03-08T01:33:55.171Z,99.90
2023-03-08T01:36:24.814Z,99.90
2023-03-08T01:38:51.827Z,99.90
2023-03-08T01:41:20.021Z,99.90
2023-03-08T01:43:47.170Z,99.90
2023-03-08T01:46:22.831Z,99.90
2023-03-08T01:49:04.727Z,99.90
2023-03-08T01:51:37.404Z,99.90
2023-03-08T01:54:13.043Z,99.90
2023-03-08T01:56:41.664Z,99.90
2023-03-08T01:59:09.100Z,99.90
2023-03-08T02:01:35.810Z,99.90
2023-03-08T02:04:02.826Z,99.90
2023-03-08T02:06:29.742Z,99.90
2023-03-08T02:08:56.506Z,99.90
2023-03-08T02:11:24.084Z,99.90
2023-03-08T02:13:52.152Z,99.90
2023-03-08T02:16:19.752Z,99.90
2023-03-08T02:18:58.815Z,99.90
2023-03-08T02:21:27.252Z,99.90
2023-03-08T02:23:54.998Z,99.90
2023-03-08T02:26:22.408Z,99.90
2023-03-08T02:28:49.114Z,99.90
2023-03-08T02:31:16.429Z,99.90
2023-03-08T02:33:43.074Z,99.90
2023-03-08T02:36:10.808Z,99.90
2023-03-08T02:38:37.811Z,99.90
2023-03-08T02:41:04.571Z,99.90
2023-03-08T02:43:31.225Z,99.90
2023-03-08T02:45:57.821Z,99.90
2023-03-08T02:48:24.532Z,99.90
2023-03-08T02:50:51.096Z,99.90
2023-03-08T02:53:17.729Z,99.90
2023-03-08T02:55:44.357Z,99.90
2023-03-08T02:58:11.261Z,99.90
2023-03-08T03:00:38.341Z,99.90
2023-03-08T03:03:05.096Z,99.90
2023-03-08T03:05:31.773Z,99.90
2023-03-08T03:07:59.081Z,99.90
2023-03-08T03:10:25.913Z,99.90
2023-03-08T03:12:52.750Z,99.90
2023-03-08T03:15:19.400Z,99.90
2023-03-08T03:17:46.058Z,99.90
2023-03-08T03:20:13.054Z,99.90
2023-03-08T03:22:39.838Z,99.90
2023-03-08T03:25:06.952Z,99.90
2023-03-08T03:27:33.564Z,99.90
2023-03-08T03:30:00.160Z,99.90
2023-03-08T03:32:27.459Z,99.90
2023-03-08T03:34:54.188Z,99.90
2023-03-08T03:37:20.820Z,99.90
2023-03-08T03:39:47.387Z,99.90
2023-03-08T03:42:14.100Z,99.90
2023-03-08T03:44:40.844Z,99.90
2023-03-08T03:47:07.665Z,99.90
2023-03-08T03:49:34.412Z,99.90
2023-03-08T03:52:01.100Z,99.90
2023-03-08T03:54:27.956Z,99.90
2023-03-08T03:56:58.046Z,99.90
2023-03-08T03:59:26.757Z,99.90
2023-03-08T04:01:53.796Z,99.90
2023-03-08T04:04:20.781Z,99.90
2023-03-08T04:06:47.554Z,99.90
2023-03-08T04:09:17.170Z,99.90
2023-03-08T04:11:44.057Z,99.90
2023-03-08T04:14:11.399Z,99.90
2023-03-08T04:16:39.397Z,99.90
2023-03-08T04:19:12.257Z,99.90
2023-03-08T04:21:39.011Z,99.90
2023-03-08T04:24:06.125Z,99.90
2023-03-08T04:26:32.805Z,99.90
2023-03-08T04:29:00.033Z,99.90
2023-03-08T04:31:28.972Z,99.90
2023-03-08T04:33:55.953Z,99.90
2023-03-08T04:36:23.164Z,99.90
2023-03-08T04:38:51.070Z,99.90
2023-03-08T04:41:19.051Z,99.90
2023-03-08T04:43:52.423Z,99.90
2023-03-08T04:46:21.872Z,99.90
2023-03-08T04:48:48.884Z,99.90
2023-03-08T04:51:16.940Z,99.90
2023-03-08T04:53:45.428Z,99.90
2023-03-08T04:56:13.863Z,99.90
2023-03-08T04:58:41.033Z,99.90
2023-03-08T05:01:19.798Z,99.90
2023-03-08T05:03:47.845Z,99.90
2023-03-08T05:06:14.451Z,99.90
2023-03-08T05:08:41.516Z,99.90
2023-03-08T05:11:08.175Z,99.90
2023-03-08T05:13:38.955Z,99.90
2023-03-08T05:16:07.576Z,99.90
2023-03-08T05:18:34.824Z,99.90
2023-03-08T05:21:04.267Z,99.90
2023-03-08T05:23:31.445Z,99.90
2023-03-08T05:26:00.138Z,99.90
2023-03-08T05:28:29.118Z,99.90
2023-03-08T05:31:08.623Z,99.90
2023-03-08T05:33:36.472Z,99.90
2023-03-08T05:36:06.108Z,99.90
2023-03-08T05:38:33.420Z,99.90
2023-03-08T05:41:02.116Z,99.90
2023-03-08T05:43:29.031Z,99.90
2023-03-08T05:46:02.260Z,99.90
2023-03-08T05:48:29.723Z,99.90
2023-03-08T05:50:57.737Z,99.90
2023-03-08T05:53:24.573Z,99.90
2023-03-08T05:55:51.240Z,99.90
2023-03-08T05:58:17.874Z,99.90
2023-03-08T06:00:44.510Z,99.90
2023-03-08T06:03:11.343Z,99.90
2023-03-08T06:05:38.474Z,99.90
2023-03-08T06:08:05.375Z,99.90
2023-03-08T06:10:32.033Z,99.90
2023-03-08T06:12:58.674Z,99.90
2023-03-08T06:15:25.436Z,99.90
2023-03-08T06:17:53.945Z,99.90
2023-03-08T06:20:22.659Z,99.90
2023-03-08T06:22:49.268Z,99.90
2023-03-08T06:25:15.994Z,99.90
2023-03-08T06:27:42.687Z,99.90
2023-03-08T06:30:10.147Z,99.90
2023-03-08T06:32:37.493Z,99.90
2023-03-08T06:35:04.546Z,99.90
2023-03-08T06:37:35.252Z,99.90
2023-03-08T06:40:02.808Z,99.90
2023-03-08T06:42:40.755Z,99.90
2023-03-08T06:45:09.046Z,99.90
2023-03-08T06:47:35.632Z,99.90
2023-03-08T06:50:02.284Z,99.90
2023-03-08T06:52:34.809Z,99.90
2023-03-08T06:55:01.397Z,99.90
2023-03-08T06:57:27.999Z,99.90
2023-03-08T06:59:54.662Z,99.90
2023-03-08T07:02:21.260Z,99.90
2023-03-08T07:04:49.598Z,99.90
2023-03-08T07:07:16.575Z,99.90
2023-03-08T07:09:43.290Z,99.90
2023-03-08T07:12:10.006Z,99.90
2023-03-08T07:14:38.731Z,99.90
2023-03-08T07:17:05.336Z,99.90
2023-03-08T07:19:32.123Z,99.90
2023-03-08T07:21:58.725Z,99.90
2023-03-08T07:24:25.341Z,99.90
2023-03-08T07:26:58.250Z,99.90
2023-03-08T07:29:24.837Z,99.90
2023-03-08T07:31:51.472Z,99.90
2023-03-08T07:34:18.087Z,99.90
2023-03-08T07:36:44.725Z,99.90
2023-03-08T07:39:11.548Z,99.90
2023-03-08T07:41:38.184Z,99.90
2023-03-08T07:44:05.039Z,99.90
2023-03-08T07:46:31.758Z,99.90
2023-03-08T07:48:58.859Z,99.90
2023-03-08T07:51:26.124Z,99.90
2023-03-08T07:53:53.173Z,99.90
2023-03-08T07:56:19.907Z,99.90
2023-03-08T07:58:47.015Z,99.90
2023-03-08T08:01:14.600Z,99.90
2023-03-08T08:03:54.554Z,99.90
2023-03-08T08:06:21.383Z,99.90
2023-03-08T08:08:48.094Z,99.90
2023-03-08T08:11:17.207Z,99.90
2023-03-08T08:13:43.964Z,99.90
2023-03-08T08:16:10.717Z,99.90
2023-03-08T08:18:37.420Z,99.90
2023-03-08T08:21:10.488Z,99.90
2023-03-08T08:23:37.895Z,99.90
2023-03-08T08:26:06.792Z,99.90
2023-03-08T08:28:33.819Z,99.90
2023-03-08T08:31:03.929Z,99.90
2023-03-08T08:33:32.272Z,99.90
2023-03-08T08:35:59.806Z,99.90
2023-03-08T08:38:26.477Z,99.90
2023-03-08T08:40:53.111Z,99.90
2023-03-08T08:43:19.738Z,99.90
2023-03-08T08:45:49.119Z,99.90
2023-03-08T08:48:15.911Z,99.90
2023-03-08T08:50:42.884Z,99.90
2023-03-08T08:53:10.239Z,99.90
2023-03-08T08:55:37.113Z,99.90
2023-03-08T08:58:05.101Z,99.90
2023-03-08T09:00:34.298Z,99.90
2023-03-08T09:03:05.937Z,99.90
2023-03-08T09:05:34.360Z,99.90
2023-03-08T09:08:02.161Z,99.90
2023-03-08T09:10:31.961Z,99.90
2023-03-08T09:12:59.117Z,99.90
2023-03-08T09:15:26.416Z,99.90
2023-03-08T09:17:53.394Z,99.90
2023-03-08T09:20:22.273Z,99.90
2023-03-08T09:22:50.323Z,99.90
2023-03-08T09:25:19.476Z,99.90
2023-03-08T09:27:46.192Z,99.90
2023-03-08T09:30:14.824Z,99.90
2023-03-08T09:32:41.632Z,99.90
2023-03-08T09:35:08.764Z,99.90
2023-03-08T09:37:35.798Z,99.90
2023-03-08T09:40:09.385Z,99.90
2023-03-08T09:42:37.139Z,99.90
2023-03-08T09:45:10.170Z,99.90
2023-03-08T09:47:49.339Z,99.90
2023-03-08T09:50:40.427Z,99.90
2023-03-08T09:54:01.669Z,99.90
2023-03-08T09:56:43.578Z,99.90
2023-03-08T09:59:34.999Z,99.90
2023-03-08T10:02:39.423Z,99.90
2023-03-08T10:05:35.587Z,99.90
2023-03-08T10:08:13.473Z,99.90
2023-03-08T10:11:01.781Z,99.90
2023-03-08T10:13:36.015Z,99.90
2023-03-08T10:16:23.979Z,99.90
2023-03-08T10:19:05.001Z,99.90
2023-03-08T10:21:33.926Z,99.90
2023-03-08T10:24:18.793Z,99.90
2023-03-08T10:26:45.997Z,99.90
2023-03-08T10:29:13.918Z,99.70
2023-03-08T10:31:43.808Z,99.70
2023-03-08T10:34:19.338Z,99.90
2023-03-08T10:37:02.316Z,99.50
2023-03-08T10:39:29.058Z,99.90
2023-03-08T10:42:07.090Z,99.90
2023-03-08T10:45:00.283Z,99.90
2023-03-08T10:47:30.262Z,99.90
2023-03-08T10:50:16.552Z,99.90
2023-03-08T10:52:44.142Z,99.90
2023-03-08T10:55:16.968Z,99.90
2023-03-08T10:58:00.785Z,99.90
2023-03-08T11:00:34.440Z,99.90
2023-03-08T11:03:15.212Z,99.90
2023-03-08T11:06:03.669Z,99.40
2023-03-08T11:08:30.283Z,99.50
2023-03-08T11:11:07.499Z,99.50
2023-03-08T11:13:46.924Z,99.90
2023-03-08T11:16:45.689Z,99.30
2023-03-08T11:19:33.765Z,98.60
2023-03-08T11:22:49.326Z,98.70
2023-03-08T11:25:35.972Z,98.70
2023-03-08T11:28:32.236Z,98.80
2023-03-08T11:31:15.003Z,98.90
2023-03-08T11:34:03.207Z,99.10
2023-03-08T11:37:20.484Z,98.70
2023-03-08T11:40:19.784Z,99.00
2023-03-08T11:43:30.846Z,98.80
2023-03-08T11:46:15.622Z,97.90
2023-03-08T11:48:58.932Z,97.30
2023-03-08T11:51:53.218Z,97.60
2023-03-08T11:54:45.594Z,96.90
2023-03-08T11:57:17.863Z,96.60
2023-03-08T12:00:00.968Z,97.20
2023-03-08T12:02:41.926Z,96.80
2023-03-08T12:05:29.470Z,96.50
2023-03-08T12:08:18.563Z,96.40
2023-03-08T12:10:56.690Z,96.50
2023-03-08T12:13:36.448Z,96.30
2023-03-08T12:16:13.835Z,97.40
2023-03-08T12:19:06.501Z,97.50
2023-03-08T12:21:52.669Z,97.40
2023-03-08T12:24:35.338Z,97.60
2023-03-08T12:27:12.595Z,97.50
2023-03-08T12:29:45.692Z,97.90
2023-03-08T12:32:14.341Z,97.80
2023-03-08T12:34:43.723Z,98.10
2023-03-08T12:37:25.416Z,98.10
2023-03-08T12:40:05.211Z,98.30
2023-03-08T12:42:38.040Z,97.70
2023-03-08T12:45:19.857Z,96.60
2023-03-08T12:48:05.294Z,96.80
2023-03-08T12:50:41.024Z,96.50
2023-03-08T12:53:40.892Z,96.50
2023-03-08T12:56:22.440Z,96.20
2023-03-08T12:58:55.540Z,95.80
2023-03-08T13:01:36.486Z,97.10
2023-03-08T13:04:06.162Z,97.30
2023-03-08T13:06:52.746Z,96.80
2023-03-08T13:09:26.631Z,97.00
2023-03-08T13:12:10.793Z,97.10
2023-03-08T13:14:43.355Z,97.50
2023-03-08T13:17:33.346Z,97.90
2023-03-08T13:20:09.724Z,97.70
2023-03-08T13:23:02.211Z,97.60
2023-03-08T13:25:58.353Z,97.70
2023-03-08T13:28:41.042Z,97.80
2023-03-08T13:31:21.821Z,98.50
2023-03-08T13:33:52.144Z,98.60
2023-03-08T13:36:20.348Z,99.10
2023-03-08T13:38:56.040Z,99.50
2023-03-08T13:41:37.212Z,99.10
2023-03-08T13:44:25.063Z,99.20
2023-03-08T13:46:54.865Z,99.80
2023-03-08T13:49:29.434Z,99.90
2023-03-08T13:51:58.426Z,99.40
2023-03-08T13:54:31.571Z,99.80
2023-03-08T13:57:02.720Z,99.70
2023-03-08T13:59:30.144Z,99.40
2023-03-08T14:01:57.170Z,99.60
2023-03-08T14:04:26.459Z,99.40
2023-03-08T14:06:55.474Z,99.40
2023-03-08T14:09:22.422Z,99.30
2023-03-08T14:12:02.844Z,99.40
2023-03-08T14:14:33.423Z,99.40
2023-03-08T14:17:00.953Z,99.80
2023-03-08T14:19:40.144Z,99.90
2023-03-08T14:22:28.699Z,99.90
2023-03-08T14:25:04.997Z,99.90
2023-03-08T14:27:42.803Z,99.90
2023-03-08T14:30:18.566Z,99.90
2023-03-08T14:33:04.074Z,99.90
2023-03-08T14:35:35.614Z,99.90
2023-03-08T14:38:03.924Z,99.90
2023-03-08T14:40:35.796Z,99.90
2023-03-08T14:43:05.986Z,99.90
2023-03-08T14:45:39.834Z,99.90
2023-03-08T14:48:18.152Z,99.90
2023-03-08T14:50:57.818Z,99.90
2023-03-08T14:53:30.783Z,99.90
2023-03-08T14:55:59.425Z,99.90
2023-03-08T14:58:31.755Z,99.90
2023-03-08T15:01:01.340Z,99.90
2023-03-08T15:03:30.139Z,99.90
2023-03-08T15:05:57.606Z,99.90
2023-03-08T15:08:24.888Z,99.90
2023-03-08T15:10:52.672Z,99.90
2023-03-08T15:13:21.951Z,99.90
2023-03-08T15:15:49.385Z,99.90
2023-03-08T15:18:16.083Z,99.90
2023-03-08T15:20:46.020Z,99.90
2023-03-08T15:23:25.175Z,99.90
2023-03-08T15:25:52.484Z,99.90
2023-03-08T15:28:21.487Z,99.90
2023-03-08T15:30:50.106Z,99.90
2023-03-08T15:33:16.678Z,99.90
2023-03-08T15:35:43.564Z,99.90
2023-03-08T15:38:14.418Z,99.90
2023-03-08T15:40:42.214Z,99.90
2023-03-08T15:43:09.028Z,99.90
2023-03-08T15:45:35.859Z,99.90
2023-03-08T15:48:07.993Z,99.90
2023-03-08T15:50:35.580Z,99.90
2023-03-08T15:53:02.528Z,99.90
2023-03-08T15:55:30.587Z,99.90
2023-03-08T15:57:58.030Z,99.90
2023-03-08T16:00:25.232Z,99.90
2023-03-08T16:02:53.565Z,99.90
2023-03-08T16:05:23.382Z,99.90
2023-03-08T16:07:58.606Z,99.90
2023-03-08T16:10:26.853Z,99.90
2023-03-08T16:12:53.728Z,99.90
2023-03-08T16:15:20.558Z,99.90
2023-03-08T16:17:47.218Z,99.90
2023-03-08T16:20:15.728Z,99.90
2023-03-08T16:22:42.668Z,99.90
2023-03-08T16:25:10.023Z,99.90
2023-03-08T16:27:38.265Z,99.90
2023-03-08T16:30:05.755Z,99.90
2023-03-08T16:32:34.622Z,99.90
2023-03-08T16:35:01.381Z,99.90
2023-03-08T16:37:28.216Z,99.90
2023-03-08T16:39:55.161Z,99.90
2023-03-08T16:42:22.591Z,99.90
2023-03-08T16:44:51.984Z,99.90
2023-03-08T16:47:19.415Z,99.90
2023-03-08T16:49:46.187Z,99.90
2023-03-08T16:52:14.389Z,99.90
2023-03-08T16:54:42.695Z,99.90
2023-03-08T16:57:19.720Z,99.90
2023-03-08T16:59:47.539Z,99.90
2023-03-08T17:02:23.171Z,99.90
2023-03-08T17:04:50.152Z,99.90
2023-03-08T17:07:18.636Z,99.90
2023-03-08T17:09:46.243Z,99.90
2023-03-08T17:12:13.036Z,99.90
2023-03-08T17:14:41.044Z,99.90
2023-03-08T17:17:07.779Z,99.90
2023-03-08T17:19:34.378Z,99.90
2023-03-08T17:22:01.233Z,99.90
2023-03-08T17:24:30.408Z,99.90
2023-03-08T17:26:57.081Z,99.90
2023-03-08T17:29:23.782Z,99.90
2023-03-08T17:31:51.124Z,99.90
2023-03-08T17:34:20.725Z,99.90
2023-03-08T17:36:47.862Z,99.90
2023-03-08T17:39:14.665Z,99.90
2023-03-08T17:41:42.896Z,99.90
2023-03-08T17:44:09.533Z,99.90
2023-03-08T17:46:37.558Z,99.90
2023-03-08T17:49:04.292Z,99.90
2023-03-08T17:51:32.316Z,99.90
2023-03-08T17:54:00.796Z,99.90
2023-03-08T17:56:29.896Z,99.90
2023-03-08T17:58:58.359Z,99.90
2023-03-08T18:01:27.904Z,99.90
2023-03-08T18:03:55.518Z,99.90
2023-03-08T18:06:34.243Z,99.90
2023-03-08T18:09:06.187Z,99.90
2023-03-08T18:11:37.388Z,99.90
2023-03-08T18:14:05.749Z,99.90
2023-03-08T18:16:33.418Z,99.90
2023-03-08T18:19:01.128Z,99.90
2023-03-08T18:21:29.866Z,99.90
2023-03-08T18:23:56.988Z,99.90
2023-03-08T18:26:24.007Z,99.90
2023-03-08T18:28:50.897Z,99.90
2023-03-08T18:31:20.895Z,99.90
2023-03-08T18:33:47.783Z,99.90
2023-03-08T18:36:14.515Z,99.90
2023-03-08T18:38:42.727Z,99.90
2023-03-08T18:41:17.622Z,99.90
2023-03-08T18:43:45.277Z,99.90
2023-03-08T18:46:13.331Z,99.90
2023-03-08T18:48:41.380Z,99.90
2023-03-08T18:51:08.650Z,99.90
2023-03-08T18:53:36.017Z,99.90
2023-03-08T18:56:04.339Z,99.90
2023-03-08T18:58:34.173Z,99.90
2023-03-08T19:01:02.774Z,99.90
2023-03-08T19:03:31.393Z,99.90
2023-03-08T19:06:02.961Z,99.90
2023-03-08T19:08:29.712Z,99.90
2023-03-08T19:10:56.699Z,99.90
2023-03-08T19:13:23.378Z,99.90
2023-03-08T19:15:50.187Z,99.90
2023-03-08T19:18:16.941Z,99.90
2023-03-08T19:20:43.855Z,99.90
2023-03-08T19:23:10.548Z,99.90
2023-03-08T19:25:57.243Z,99.90
2023-03-08T19:28:23.977Z,99.90
2023-03-08T19:30:51.621Z,99.90
2023-03-08T19:33:30.478Z,99.90
2023-03-08T19:35:57.920Z,99.90
2023-03-08T19:38:24.573Z,99.90
2023-03-08T19:40:51.201Z,99.90
2023-03-08T19:43:17.851Z,99.90
2023-03-08T19:45:50.674Z,99.90
2023-03-08T19:48:17.451Z,99.90
2023-03-08T19:50:47.208Z,99.90
2023-03-08T19:53:13.854Z,99.90
2023-03-08T19:55:49.876Z,99.90
2023-03-08T19:58:17.003Z,99.90
2023-03-08T20:00:44.348Z,99.90
2023-03-08T20:03:12.532Z,99.90
2023-03-08T20:05:42.275Z,99.90
2023-03-08T20:08:08.880Z,99.90
2023-03-08T20:10:35.500Z,99.90
2023-03-08T20:13:02.433Z,99.90
2023-03-08T20:15:29.276Z,99.90
2023-03-08T20:17:56.031Z,99.90
2023-03-08T20:20:22.877Z,99.90
2023-03-08T20:22:49.628Z,99.90
2023-03-08T20:25:17.344Z,99.90
2023-03-08T20:27:44.161Z,99.90
2023-03-08T20:30:12.727Z,99.90
2023-03-08T20:32:40.469Z,99.90
2023-03-08T20:35:08.049Z,99.90
2023-03-08T20:37:34.636Z,99.90
2023-03-08T20:40:04.249Z,99.90
2023-03-08T20:42:31.282Z,99.90
2023-03-08T20:44:57.884Z,99.90
2023-03-08T20:47:24.558Z,99.90
2023-03-08T20:49:51.154Z,99.90
2023-03-08T20:52:17.759Z,99.90
2023-03-08T20:54:44.453Z,99.90
2023-03-08T20:57:11.248Z,99.90
2023-03-08T20:59:37.856Z,99.90
2023-03-08T21:02:04.712Z,99.90
2023-03-08T21:04:33.481Z,99.90
2023-03-08T21:07:00.151Z,99.90
2023-03-08T21:09:26.780Z,99.90
2023-03-08T21:11:53.356Z,99.90
2023-03-08T21:14:20.040Z,99.90
2023-03-08T21:16:47.477Z,99.90
2023-03-08T21:19:14.143Z,99.90
2023-03-08T21:21:43.416Z,99.90
2023-03-08T21:24:18.056Z,99.90
2023-03-08T21:26:45.523Z,99.90
2023-03-08T21:29:17.706Z,99.90
2023-03-08T21:31:50.480Z,99.90
2023-03-08T21:34:18.311Z,99.90
2023-03-08T21:36:45.182Z,99.90
2023-03-08T21:39:12.477Z,99.90
2023-03-08T21:41:41.358Z,99.90
2023-03-08T21:44:12.695Z,99.90
2023-03-08T21:46:40.671Z,99.90
2023-03-08T21:49:08.241Z,99.90
2023-03-08T21:51:36.695Z,99.90
2023-03-08T21:54:03.442Z,99.90
2023-03-08T21:56:30.085Z,99.90
2023-03-08T21:58:56.770Z,99.90
2023-03-08T22:01:29.128Z,99.90
2023-03-08T22:03:57.826Z,99.90
2023-03-08T22:06:25.210Z,99.90
2023-03-08T22:08:52.016Z,99.90
2023-03-08T22:11:19.889Z,99.90
2023-03-08T22:14:05.735Z,99.90
2023-03-08T22:16:33.113Z,99.90
2023-03-08T22:19:01.977Z,99.90
2023-03-08T22:21:29.102Z,99.90
2023-03-08T22:23:58.434Z,99.90
2023-03-08T22:26:26.369Z,99.90
2023-03-08T22:28:54.226Z,99.90
2023-03-08T22:31:24.568Z,99.90
2023-03-08T22:33:51.341Z,99.90
2023-03-08T22:36:19.515Z,99.90
2023-03-08T22:38:46.762Z,99.90
2023-03-08T22:41:16.230Z,99.90
2023-03-08T22:43:43.444Z,99.90
2023-03-08T22:46:13.175Z,99.90
2023-03-08T22:48:40.040Z,99.90
2023-03-08T22:51:11.279Z,99.90
2023-03-08T22:53:38.860Z,99.90
2023-03-08T22:56:06.023Z,99.90
2023-03-08T22:58:32.867Z,99.90
2023-03-08T23:00:59.509Z,99.90
2023-03-08T23:03:26.137Z,99.90
2023-03-08T23:05:52.878Z,99.90
2023-03-08T23:08:19.472Z,99.90
2023-03-08T23:10:46.067Z,99.90
2023-03-08T23:13:21.644Z,99.90
2023-03-08T23:15:58.072Z,99.90
2023-03-08T23:18:25.038Z,99.90
2023-03-08T23:20:51.711Z,99.90
2023-03-08T23:23:18.414Z,99.90
2023-03-08T23:25:45.159Z,99.90
2023-03-08T23:28:11.953Z,99.90
2023-03-08T23:30:41.533Z,99.90
2023-03-08T23:33:08.129Z,99.90
2023-03-08T23:35:34.749Z,99.90
2023-03-08T23:38:01.889Z,99.90
2023-03-08T23:40:28.542Z,99.90
2023-03-08T23:42:55.214Z,99.90
2023-03-08T23:45:22.159Z,99.90
2023-03-08T23:47:48.752Z,99.90
2023-03-08T23:50:15.448Z,99.90
2023-03-08T23:52:42.040Z,99.90
2023-03-08T23:55:09.103Z,99.90
2023-03-08T23:57:35.756Z,99.90
